createdAt,value
2018-06-11T00:01:33.487Z,65.47
2018-06-11T00:03:59.779Z,65.39
2018-06-11T00:06:26.069Z,65.30
2018-06-11T00:08:52.360Z,64.75
2018-06-11T00:11:18.658Z,64.42
2018-06-11T00:13:44.949Z,64.49
2018-06-11T00:16:11.280Z,64.24
2018-06-11T00:18:37.568Z,64.09
2018-06-11T00:21:03.862Z,64.23
2018-06-11T00:23:30.157Z,63.99
2018-06-11T00:25:56.489Z,63.93
2018-06-11T00:28:22.775Z,63.93
2018-06-11T00:30:49.068Z,63.92
2018-06-11T00:33:15.367Z,63.80
2018-06-11T00:35:41.656Z,64.04
2018-06-11T00:38:07.948Z,64.00
2018-06-11T00:40:34.236Z,64.23
2018-06-11T00:43:00.526Z,64.25
2018-06-11T00:45:26.815Z,64.31
2018-06-11T00:47:53.110Z,64.36
2018-06-11T00:50:19.404Z,64.28
2018-06-11T00:52:45.698Z,64.30
2018-06-11T00:55:12.022Z,64.29
2018-06-11T00:57:38.312Z,64.27
2018-06-11T01:00:04.645Z,64.09
2018-06-11T01:02:30.939Z,64.30
2018-06-11T01:04:57.228Z,64.17
2018-06-11T01:07:23.564Z,63.94
2018-06-11T01:09:49.850Z,63.90
2018-06-11T01:12:16.186Z,63.67
2018-06-11T01:14:42.478Z,63.65
2018-06-11T01:17:08.821Z,63.69
2018-06-11T01:19:35.108Z,63.20
2018-06-11T01:22:01.411Z,62.59
2018-06-11T01:24:27.698Z,62.83
2018-06-11T01:26:54.032Z,62.75
2018-06-11T01:29:20.390Z,62.77
2018-06-11T01:31:46.685Z,62.47
2018-06-11T01:34:12.976Z,62.51
2018-06-11T01:36:39.269Z,62.83
2018-06-11T01:39:05.568Z,62.62
2018-06-11T01:41:31.851Z,62.41
2018-06-11T01:43:58.142Z,62.03
2018-06-11T01:46:24.445Z,62.33
2018-06-11T01:48:50.754Z,61.66
2018-06-11T01:51:17.039Z,61.63
2018-06-11T01:53:43.334Z,61.11
2018-06-11T01:56:09.631Z,61.58
2018-06-11T01:58:35.697Z,61.51
2018-06-11T02:01:01.997Z,61.87
2018-06-11T02:03:28.315Z,61.70
2018-06-11T02:05:54.598Z,61.16
2018-06-11T02:08:20.892Z,61.53
2018-06-11T02:10:47.183Z,61.36
2018-06-11T02:13:13.476Z,61.49
2018-06-11T02:15:39.766Z,61.84
2018-06-11T02:18:06.055Z,61.76
2018-06-11T02:20:32.354Z,61.89
2018-06-11T02:22:58.694Z,61.41
2018-06-11T02:25:25.027Z,61.57
2018-06-11T02:27:51.356Z,61.73
2018-06-11T02:30:17.684Z,61.47
2018-06-11T02:32:43.982Z,61.51
2018-06-11T02:35:10.276Z,61.67
2018-06-11T02:37:36.570Z,61.34
2018-06-11T02:40:02.875Z,61.69
2018-06-11T02:42:29.204Z,62.09
2018-06-11T02:44:55.497Z,62.06
2018-06-11T02:47:21.833Z,62.21
2018-06-11T02:49:48.125Z,62.33
2018-06-11T02:52:14.459Z,62.50
2018-06-11T02:54:40.748Z,62.08
2018-06-11T02:57:07.035Z,61.88
2018-06-11T02:59:33.330Z,61.87
2018-06-11T03:01:59.626Z,61.60
2018-06-11T03:04:25.919Z,61.66
2018-06-11T03:06:52.204Z,61.88
2018-06-11T03:09:18.500Z,61.73
2018-06-11T03:11:44.782Z,61.84
2018-06-11T03:14:11.111Z,61.81
2018-06-11T03:16:37.403Z,61.67
2018-06-11T03:19:03.688Z,61.85
2018-06-11T03:21:29.981Z,61.86
2018-06-11T03:23:56.267Z,61.83
2018-06-11T03:26:22.557Z,61.40
2018-06-11T03:28:48.855Z,61.46
2018-06-11T03:31:15.183Z,61.80
2018-06-11T03:33:41.470Z,61.89
2018-06-11T03:36:07.794Z,62.11
2018-06-11T03:38:34.084Z,62.39
2018-06-11T03:41:00.416Z,62.48
2018-06-11T03:43:26.711Z,62.63
2018-06-11T03:45:53.010Z,62.67
2018-06-11T03:48:19.344Z,63.05
2018-06-11T03:50:45.640Z,63.13
2018-06-11T03:53:11.927Z,63.57
2018-06-11T03:55:38.215Z,64.12
2018-06-11T03:58:04.511Z,64.50
2018-06-11T04:00:30.799Z,64.85
2018-06-11T04:02:57.088Z,67.06
2018-06-11T04:05:23.380Z,66.57
2018-06-11T04:07:49.666Z,66.30
2018-06-11T04:10:15.958Z,65.80
2018-06-11T04:12:42.248Z,65.77
2018-06-11T04:15:08.539Z,65.70
2018-06-11T04:17:34.827Z,65.61
2018-06-11T04:20:01.125Z,65.82
2018-06-11T04:22:27.416Z,65.60
2018-06-11T04:24:53.706Z,65.11
2018-06-11T04:27:20.008Z,64.94
2018-06-11T04:29:46.300Z,64.70
2018-06-11T04:32:12.590Z,64.77
2018-06-11T04:34:38.884Z,65.12
2018-06-11T04:37:05.194Z,65.00
2018-06-11T04:39:31.488Z,65.00
2018-06-11T04:41:57.781Z,64.90
2018-06-11T04:44:24.108Z,64.79
2018-06-11T04:46:50.402Z,64.73
2018-06-11T04:49:16.737Z,64.24
2018-06-11T04:51:43.077Z,65.40
2018-06-11T04:54:09.363Z,66.43
2018-06-11T04:56:35.655Z,66.50
2018-06-11T04:59:01.962Z,66.41
2018-06-11T05:01:28.253Z,66.06
2018-06-11T05:03:54.547Z,66.44
2018-06-11T05:06:20.841Z,66.39
2018-06-11T05:08:47.138Z,66.57
2018-06-11T05:11:13.433Z,66.76
2018-06-11T05:13:39.768Z,67.51
2018-06-11T05:16:06.058Z,67.13
2018-06-11T05:18:32.348Z,66.96
2018-06-11T05:20:58.644Z,67.31
2018-06-11T05:23:24.941Z,66.87
2018-06-11T05:25:51.238Z,67.54
2018-06-11T05:28:17.532Z,67.10
2018-06-11T05:30:43.827Z,66.79
2018-06-11T05:33:10.112Z,67.49
2018-06-11T05:35:36.415Z,67.01
2018-06-11T05:38:02.712Z,66.71
2018-06-11T05:40:29.030Z,67.51
2018-06-11T05:42:55.314Z,67.73
2018-06-11T05:45:21.609Z,66.19
2018-06-11T05:47:47.899Z,66.52
2018-06-11T05:50:14.197Z,66.23
2018-06-11T05:52:40.482Z,67.00
2018-06-11T05:55:06.775Z,66.24
2018-06-11T05:57:33.064Z,65.61
2018-06-11T05:59:59.357Z,64.32
2018-06-11T06:02:25.666Z,64.16
2018-06-11T06:04:52.025Z,63.81
2018-06-11T06:07:18.354Z,63.20
2018-06-11T06:09:44.641Z,63.97
2018-06-11T06:12:10.930Z,64.62
2018-06-11T06:14:37.264Z,64.79
2018-06-11T06:17:03.562Z,63.59
2018-06-11T06:19:29.897Z,60.77
2018-06-11T06:21:56.139Z,60.40
2018-06-11T06:24:22.433Z,58.87
2018-06-11T06:26:48.752Z,59.50
2018-06-11T06:29:15.012Z,59.36
2018-06-11T06:31:41.311Z,59.84
2018-06-11T06:34:07.609Z,58.50
2018-06-11T06:36:33.891Z,57.47
2018-06-11T06:39:00.183Z,55.88
2018-06-11T06:41:26.472Z,56.66
2018-06-11T06:43:52.770Z,56.36
2018-06-11T06:46:19.072Z,56.86
2018-06-11T06:48:45.358Z,57.10
2018-06-11T06:51:11.651Z,56.17
2018-06-11T06:53:37.973Z,55.90
2018-06-11T06:56:04.232Z,54.96
2018-06-11T06:58:30.524Z,55.61
2018-06-11T07:00:56.817Z,53.96
2018-06-11T07:03:23.105Z,54.55
2018-06-11T07:05:49.403Z,54.96
2018-06-11T07:08:15.693Z,54.93
2018-06-11T07:10:41.990Z,54.36
2018-06-11T07:13:08.281Z,54.99
2018-06-11T07:15:34.602Z,54.62
2018-06-11T07:18:00.904Z,52.92
2018-06-11T07:20:27.203Z,52.00
2018-06-11T07:22:53.492Z,51.41
2018-06-11T07:25:19.790Z,51.42
2018-06-11T07:27:46.075Z,52.52
2018-06-11T07:30:12.406Z,52.40
2018-06-11T07:32:38.701Z,52.34
2018-06-11T07:35:05.048Z,52.65
2018-06-11T07:37:31.377Z,50.85
2018-06-11T07:39:57.639Z,49.40
2018-06-11T07:42:23.937Z,50.13
2018-06-11T07:44:50.232Z,50.18
2018-06-11T07:47:16.524Z,50.86
2018-06-11T07:49:42.810Z,51.13
2018-06-11T07:52:09.134Z,51.27
2018-06-11T07:54:35.423Z,51.44
2018-06-11T07:57:01.717Z,50.79
2018-06-11T07:59:28.006Z,50.63
2018-06-11T08:01:54.304Z,50.87
2018-06-11T08:04:20.585Z,51.14
2018-06-11T08:06:46.874Z,50.23
2018-06-11T08:09:13.165Z,48.79
2018-06-11T08:11:39.458Z,48.18
2018-06-11T08:14:05.749Z,47.25
2018-06-11T08:16:32.044Z,48.10
2018-06-11T08:18:58.336Z,48.84
2018-06-11T08:21:24.626Z,49.81
2018-06-11T08:23:50.917Z,49.24
2018-06-11T08:26:17.242Z,49.52
2018-06-11T08:28:43.528Z,49.76
2018-06-11T08:31:09.822Z,47.46
2018-06-11T08:33:36.122Z,48.13
2018-06-11T08:36:02.414Z,48.54
2018-06-11T08:38:28.698Z,48.90
2018-06-11T08:40:54.987Z,47.08
2018-06-11T08:43:21.284Z,45.41
2018-06-11T08:45:47.616Z,46.92
2018-06-11T08:48:13.913Z,47.64
2018-06-11T08:50:40.205Z,47.70
2018-06-11T08:53:06.503Z,47.03
2018-06-11T08:55:32.801Z,46.61
2018-06-11T08:57:59.095Z,46.48
2018-06-11T09:00:25.389Z,46.30
2018-06-11T09:02:51.684Z,47.02
2018-06-11T09:05:17.970Z,46.78
2018-06-11T09:07:44.258Z,46.36
2018-06-11T09:10:10.549Z,45.84
2018-06-11T09:12:36.884Z,44.77
2018-06-11T09:15:03.125Z,45.08
2018-06-11T09:17:29.416Z,45.06
2018-06-11T09:19:55.752Z,45.18
2018-06-11T09:22:22.066Z,43.42
2018-06-11T09:24:48.349Z,43.88
2018-06-11T09:27:14.640Z,44.40
2018-06-11T09:29:40.935Z,45.15
2018-06-11T09:32:07.221Z,45.06
2018-06-11T09:34:33.511Z,44.32
2018-06-11T09:36:59.844Z,43.68
2018-06-11T09:39:26.137Z,43.25
2018-06-11T09:41:52.477Z,42.72
2018-06-11T09:44:18.760Z,42.39
2018-06-11T09:46:45.094Z,44.26
2018-06-11T09:49:11.407Z,43.81
2018-06-11T09:51:37.727Z,44.23
2018-06-11T09:54:04.015Z,41.79
2018-06-11T09:56:30.355Z,43.21
2018-06-11T09:58:56.643Z,42.30
2018-06-11T10:01:22.934Z,41.12
2018-06-11T10:03:49.265Z,41.23
2018-06-11T10:06:15.558Z,41.96
2018-06-11T10:08:41.850Z,41.83
2018-06-11T10:11:08.142Z,41.95
2018-06-11T10:13:34.481Z,42.10
2018-06-11T10:16:00.741Z,42.29
2018-06-11T10:18:27.034Z,41.72
2018-06-11T10:20:53.337Z,41.01
2018-06-11T10:23:19.636Z,40.39
2018-06-11T10:25:45.936Z,40.42
2018-06-11T10:28:12.227Z,40.39
2018-06-11T10:30:38.564Z,40.78
2018-06-11T10:33:04.855Z,40.98
2018-06-11T10:35:31.200Z,40.73
2018-06-11T10:37:57.510Z,39.80
2018-06-11T10:40:23.800Z,40.24
2018-06-11T10:42:50.099Z,39.00
2018-06-11T10:45:16.390Z,39.11
2018-06-11T10:47:42.678Z,40.07
2018-06-11T10:50:08.972Z,40.27
2018-06-11T10:52:35.260Z,39.84
2018-06-11T10:55:01.552Z,40.87
2018-06-11T10:57:27.840Z,40.48
2018-06-11T10:59:54.130Z,38.42
2018-06-11T11:02:20.418Z,38.61
2018-06-11T11:04:46.707Z,38.03
2018-06-11T11:07:12.999Z,39.22
2018-06-11T11:09:39.293Z,40.32
2018-06-11T11:12:05.589Z,39.52
2018-06-11T11:14:31.883Z,38.78
2018-06-11T11:16:58.182Z,38.19
2018-06-11T11:19:24.512Z,38.23
2018-06-11T11:21:50.859Z,38.52
2018-06-11T11:24:17.103Z,38.31
2018-06-11T11:26:43.393Z,40.11
2018-06-11T11:29:09.689Z,38.53
2018-06-11T11:31:36.035Z,38.86
2018-06-11T11:34:02.308Z,40.24
2018-06-11T11:36:28.597Z,39.51
2018-06-11T11:38:54.894Z,38.02
2018-06-11T11:41:21.225Z,38.16
2018-06-11T11:43:47.510Z,38.71
2018-06-11T11:46:13.842Z,39.73
2018-06-11T11:48:40.180Z,38.68
2018-06-11T11:51:06.483Z,38.01
2018-06-11T11:53:32.765Z,38.40
2018-06-11T11:55:59.057Z,36.99
2018-06-11T11:58:25.355Z,38.58
2018-06-11T12:00:51.677Z,37.07
2018-06-11T12:03:17.966Z,37.21
2018-06-11T12:05:44.263Z,37.98
2018-06-11T12:08:10.558Z,38.48
2018-06-11T12:10:36.890Z,37.40
2018-06-11T12:13:03.195Z,36.56
2018-06-11T12:15:29.488Z,38.18
2018-06-11T12:17:55.828Z,37.55
2018-06-11T12:20:22.122Z,38.29
2018-06-11T12:22:48.409Z,38.38
2018-06-11T12:25:14.747Z,35.80
2018-06-11T12:27:41.046Z,36.85
2018-06-11T12:30:07.335Z,36.10
2018-06-11T12:32:33.628Z,36.79
2018-06-11T12:34:59.924Z,35.85
2018-06-11T12:37:26.217Z,37.89
2018-06-11T12:39:52.511Z,38.46
2018-06-11T12:42:18.799Z,36.44
2018-06-11T12:44:45.127Z,36.09
2018-06-11T12:47:11.410Z,37.80
2018-06-11T12:49:37.748Z,37.44
2018-06-11T12:52:04.034Z,36.27
2018-06-11T12:54:30.324Z,34.85
2018-06-11T12:56:56.613Z,36.07
2018-06-11T12:59:22.939Z,35.13
2018-06-11T13:01:49.270Z,34.15
2018-06-11T13:04:15.555Z,33.67
2018-06-11T13:06:41.932Z,34.95
2018-06-11T13:09:08.196Z,35.35
2018-06-11T13:11:34.482Z,35.52
2018-06-11T13:14:00.834Z,36.43
2018-06-11T13:16:27.134Z,36.86
2018-06-11T13:18:53.423Z,37.42
2018-06-11T13:21:19.717Z,36.95
2018-06-11T13:23:46.026Z,38.32
2018-06-11T13:26:12.327Z,38.67
2018-06-11T13:28:38.624Z,38.65
2018-06-11T13:31:04.927Z,38.39
2018-06-11T13:33:31.215Z,36.98
2018-06-11T13:35:57.517Z,37.82
2018-06-11T13:38:23.807Z,37.59
2018-06-11T13:40:50.101Z,37.57
2018-06-11T13:43:16.388Z,37.72
2018-06-11T13:45:42.683Z,36.66
2018-06-11T13:48:08.976Z,36.93
2018-06-11T13:50:35.266Z,37.15
2018-06-11T13:53:01.553Z,38.44
2018-06-11T13:55:27.842Z,39.78
2018-06-11T13:57:54.130Z,38.89
2018-06-11T14:00:20.414Z,39.71
2018-06-11T14:02:46.707Z,40.40
2018-06-11T14:05:12.990Z,39.52
2018-06-11T14:07:39.282Z,39.14
2018-06-11T14:10:05.583Z,40.24
2018-06-11T14:12:31.878Z,39.74
2018-06-11T14:14:58.218Z,39.57
2018-06-11T14:17:24.505Z,39.90
2018-06-11T14:19:50.803Z,40.71
2018-06-11T14:22:17.101Z,38.98
2018-06-11T14:24:43.402Z,39.15
2018-06-11T14:27:09.699Z,39.58
2018-06-11T14:29:35.999Z,40.04
2018-06-11T14:32:02.289Z,39.80
2018-06-11T14:34:28.603Z,40.31
2018-06-11T14:36:54.892Z,39.74
2018-06-11T14:39:21.187Z,39.78
2018-06-11T14:41:47.529Z,39.98
2018-06-11T14:44:13.822Z,40.16
2018-06-11T14:46:40.114Z,41.08
2018-06-11T14:49:06.409Z,41.66
2018-06-11T14:51:32.713Z,40.74
2018-06-11T14:53:59.018Z,40.90
2018-06-11T14:56:25.317Z,40.65
2018-06-11T14:58:51.608Z,39.40
2018-06-11T15:01:17.902Z,39.82
2018-06-11T15:03:44.223Z,40.08
2018-06-11T15:06:10.489Z,40.07
2018-06-11T15:08:36.798Z,40.17
2018-06-11T15:11:03.078Z,39.71
2018-06-11T15:13:29.363Z,38.56
2018-06-11T15:15:55.718Z,38.78
2018-06-11T15:18:22.015Z,39.25
2018-06-11T15:20:48.445Z,39.39
2018-06-11T15:23:14.678Z,39.75
2018-06-11T15:25:40.970Z,38.48
2018-06-11T15:28:07.258Z,38.89
2018-06-11T15:30:33.570Z,40.47
2018-06-11T15:32:59.865Z,42.29
2018-06-11T15:35:26.163Z,42.74
2018-06-11T15:37:52.466Z,42.65
2018-06-11T15:40:18.756Z,43.17
2018-06-11T15:42:45.053Z,43.25
2018-06-11T15:45:11.349Z,43.63
2018-06-11T15:47:37.649Z,43.79
2018-06-11T15:50:03.974Z,43.89
2018-06-11T15:52:30.271Z,44.04
2018-06-11T15:54:56.560Z,44.20
2018-06-11T15:57:22.857Z,43.88
2018-06-11T15:59:49.180Z,43.86
2018-06-11T16:02:15.473Z,43.80
2018-06-11T16:04:41.781Z,43.59
2018-06-11T16:07:08.097Z,43.91
2018-06-11T16:09:34.395Z,44.14
2018-06-11T16:12:00.713Z,43.57
2018-06-11T16:14:26.999Z,42.90
2018-06-11T16:16:53.298Z,43.43
2018-06-11T16:19:19.588Z,42.86
2018-06-11T16:21:45.877Z,42.29
2018-06-11T16:24:12.158Z,42.74
2018-06-11T16:26:38.454Z,42.93
2018-06-11T16:29:04.759Z,42.88
2018-06-11T16:31:31.047Z,44.01
2018-06-11T16:33:57.343Z,44.67
2018-06-11T16:36:23.642Z,45.31
2018-06-11T16:38:49.936Z,45.54
2018-06-11T16:41:16.224Z,45.80
2018-06-11T16:43:42.511Z,45.82
2018-06-11T16:46:08.799Z,45.82
2018-06-11T16:48:35.093Z,45.71
2018-06-11T16:51:01.393Z,45.79
2018-06-11T16:53:27.679Z,45.81
2018-06-11T16:55:53.989Z,46.19
2018-06-11T16:58:20.287Z,46.31
2018-06-11T17:00:46.580Z,46.22
2018-06-11T17:03:12.884Z,46.23
2018-06-11T17:05:39.179Z,46.50
2018-06-11T17:08:05.501Z,46.35
2018-06-11T17:10:31.806Z,46.69
2018-06-11T17:12:58.092Z,46.90
2018-06-11T17:15:24.382Z,47.00
2018-06-11T17:17:50.674Z,47.35
2018-06-11T17:20:17.038Z,47.23
2018-06-11T17:22:43.279Z,47.50
2018-06-11T17:25:09.573Z,47.77
2018-06-11T17:27:35.906Z,48.10
2018-06-11T17:30:02.206Z,48.24
2018-06-11T17:32:28.498Z,48.57
2018-06-11T17:34:54.795Z,48.92
2018-06-11T17:37:21.084Z,49.14
2018-06-11T17:39:47.388Z,49.30
2018-06-11T17:42:13.679Z,49.34
2018-06-11T17:44:40.033Z,49.49
2018-06-11T17:47:06.268Z,49.76
2018-06-11T17:49:32.564Z,50.20
2018-06-11T17:51:58.862Z,50.34
2018-06-11T17:54:25.170Z,50.42
2018-06-11T17:56:51.439Z,50.53
2018-06-11T17:59:17.737Z,50.82
2018-06-11T18:01:44.023Z,51.04
2018-06-11T18:04:10.403Z,51.13
2018-06-11T18:06:36.653Z,51.18
2018-06-11T18:09:02.957Z,51.30
2018-06-11T18:11:29.287Z,51.37
2018-06-11T18:13:55.616Z,51.50
2018-06-11T18:16:21.903Z,51.50
2018-06-11T18:18:48.195Z,51.57
2018-06-11T18:21:14.540Z,51.45
2018-06-11T18:23:42.176Z,51.55
2018-06-11T18:26:07.124Z,51.63
2018-06-11T18:28:33.418Z,51.61
2018-06-11T18:30:59.715Z,51.75
2018-06-11T18:33:26.001Z,52.04
2018-06-11T18:35:52.305Z,52.02
2018-06-11T18:38:18.601Z,52.03
2018-06-11T18:40:44.932Z,52.22
2018-06-11T18:43:11.261Z,52.42
2018-06-11T18:45:37.546Z,52.48
2018-06-11T18:48:03.881Z,52.52
2018-06-11T18:50:30.249Z,52.41
2018-06-11T18:52:56.535Z,52.50
2018-06-11T18:55:22.828Z,52.58
2018-06-11T18:57:49.135Z,52.80
2018-06-11T19:00:15.414Z,53.03
2018-06-11T19:02:41.715Z,53.22
2018-06-11T19:05:07.998Z,53.46
2018-06-11T19:07:34.301Z,53.41
2018-06-11T19:10:00.591Z,53.45
2018-06-11T19:12:26.888Z,53.52
2018-06-11T19:14:53.176Z,53.62
2018-06-11T19:17:19.470Z,53.69
2018-06-11T19:19:45.765Z,53.90
2018-06-11T19:22:12.055Z,54.04
2018-06-11T19:24:38.355Z,54.12
2018-06-11T19:27:04.649Z,54.10
2018-06-11T19:29:30.951Z,54.26
2018-06-11T19:31:57.250Z,54.55
2018-06-11T19:34:23.555Z,54.62
2018-06-11T19:36:49.857Z,54.88
2018-06-11T19:39:16.146Z,54.86
2018-06-11T19:41:42.470Z,54.81
2018-06-11T19:44:08.761Z,54.59
2018-06-11T19:46:35.051Z,54.41
2018-06-11T19:49:01.340Z,54.37
2018-06-11T19:51:27.634Z,54.27
2018-06-11T19:53:53.926Z,54.29
2018-06-11T19:56:20.211Z,53.98
2018-06-11T19:58:46.550Z,53.72
2018-06-11T20:01:12.843Z,53.70
2018-06-11T20:03:39.134Z,53.56
2018-06-11T20:06:05.428Z,53.72
2018-06-11T20:08:31.760Z,53.67
2018-06-11T20:10:58.057Z,53.40
2018-06-11T20:13:24.353Z,53.57
2018-06-11T20:15:50.720Z,53.74
2018-06-11T20:18:16.975Z,53.87
2018-06-11T20:20:43.317Z,54.00
2018-06-11T20:23:09.609Z,53.75
2018-06-11T20:25:35.895Z,53.93
2018-06-11T20:28:02.191Z,53.89
2018-06-11T20:30:28.515Z,53.95
2018-06-11T20:32:54.808Z,53.84
2018-06-11T20:35:21.100Z,53.78
2018-06-11T20:37:47.417Z,53.53
2018-06-11T20:40:13.703Z,52.90
2018-06-11T20:42:39.996Z,52.81
2018-06-11T20:45:06.284Z,52.83
2018-06-11T20:47:32.878Z,53.16
2018-06-11T20:49:59.206Z,53.03
2018-06-11T20:52:25.536Z,53.01
2018-06-11T20:54:51.838Z,53.03
2018-06-11T20:57:18.129Z,53.08
2018-06-11T20:59:44.420Z,53.02
2018-06-11T21:02:10.711Z,52.93
2018-06-11T21:04:36.998Z,53.01
2018-06-11T21:07:03.295Z,53.10
2018-06-11T21:09:29.589Z,53.24
2018-06-11T21:11:55.885Z,53.17
2018-06-11T21:14:22.180Z,53.23
2018-06-11T21:16:48.477Z,53.40
2018-06-11T21:19:14.770Z,53.79
2018-06-11T21:21:41.102Z,53.87
2018-06-11T21:24:07.409Z,54.02
2018-06-11T21:26:33.685Z,53.93
2018-06-11T21:28:59.984Z,54.38
2018-06-11T21:31:26.274Z,54.64
2018-06-11T21:33:52.562Z,54.66
2018-06-11T21:36:18.886Z,54.84
2018-06-11T21:38:45.216Z,55.10
2018-06-11T21:41:11.510Z,55.61
2018-06-11T21:43:37.806Z,55.95
2018-06-11T21:46:04.100Z,56.11
2018-06-11T21:48:30.399Z,56.24
2018-06-11T21:50:56.723Z,56.28
2018-06-11T21:53:23.014Z,56.08
2018-06-11T21:55:49.310Z,56.39
2018-06-11T21:58:15.606Z,56.58
2018-06-11T22:00:41.907Z,56.73
2018-06-11T22:03:08.284Z,56.78
2018-06-11T22:05:34.571Z,56.75
2018-06-11T22:08:00.884Z,56.63
2018-06-11T22:10:27.187Z,56.49
2018-06-11T22:12:53.505Z,56.57
2018-06-11T22:15:19.844Z,56.39
2018-06-11T22:17:46.143Z,56.33
2018-06-11T22:20:12.441Z,56.60
2018-06-11T22:22:38.725Z,56.96
2018-06-11T22:25:05.019Z,57.10
2018-06-11T22:27:31.340Z,57.08
2018-06-11T22:29:57.640Z,57.06
2018-06-11T22:32:23.989Z,57.09
2018-06-11T22:34:50.283Z,56.98
2018-06-11T22:37:16.571Z,56.91
2018-06-11T22:39:42.909Z,56.84
2018-06-11T22:42:09.200Z,56.76
2018-06-11T22:44:35.501Z,56.74
2018-06-11T22:47:01.803Z,56.68
2018-06-11T22:49:28.094Z,56.81
2018-06-11T22:51:54.390Z,57.21
2018-06-11T22:54:20.723Z,57.69
2018-06-11T22:56:47.008Z,57.85
2018-06-11T22:59:13.299Z,58.01
2018-06-11T23:01:39.593Z,58.03
2018-06-11T23:04:05.886Z,57.42
2018-06-11T23:06:32.178Z,57.10
2018-06-11T23:08:58.472Z,56.73
2018-06-11T23:11:24.778Z,56.88
2018-06-11T23:13:51.104Z,56.97
2018-06-11T23:16:17.403Z,56.86
2018-06-11T23:18:43.696Z,56.66
2018-06-11T23:21:09.996Z,57.07
2018-06-11T23:23:36.344Z,57.48
2018-06-11T23:26:02.637Z,57.78
2018-06-11T23:28:28.923Z,57.94
2018-06-11T23:30:55.220Z,58.03
2018-06-11T23:33:21.505Z,58.15
2018-06-11T23:35:47.803Z,58.27
2018-06-11T23:38:14.092Z,58.35
2018-06-11T23:40:40.392Z,58.40
2018-06-11T23:43:06.679Z,58.45
2018-06-11T23:45:32.969Z,58.55
2018-06-11T23:47:59.259Z,58.41
2018-06-11T23:50:25.552Z,58.37
2018-06-11T23:52:51.842Z,58.11
2018-06-11T23:55:18.178Z,58.13
2018-06-11T23:57:44.462Z,58.10
